createdAt,value
2023-03-23T15:59:53.944Z,2.40
2023-03-23T16:02:26.929Z,2.10
2023-03-23T16:04:58.427Z,2.10
2023-03-23T16:07:29.559Z,2.10
2023-03-23T16:10:00.781Z,1.70
2023-03-23T16:12:33.178Z,2.00
2023-03-23T16:15:04.528Z,1.80
2023-03-23T16:17:35.991Z,2.40
2023-03-23T16:20:14.652Z,2.60
2023-03-23T16:22:45.964Z,2.70
2023-03-23T16:25:18.796Z,1.70
2023-03-23T16:27:52.324Z,1.40
2023-03-23T16:30:27.225Z,1.80
2023-03-23T16:32:58.352Z,1.70
2023-03-23T16:35:29.541Z,1.80
2023-03-23T16:38:08.101Z,1.80
2023-03-23T16:40:40.388Z,7.50
2023-03-23T16:43:12.044Z,5.00
2023-03-23T16:45:45.971Z,4.90
2023-03-23T16:48:18.330Z,8.30
2023-03-23T16:50:50.012Z,12.00
2023-03-23T16:53:21.734Z,12.30
2023-03-23T16:55:54.203Z,15.90
2023-03-23T16:58:29.128Z,14.80
2023-03-23T17:01:00.143Z,12.70
2023-03-23T17:03:31.778Z,10.60
2023-03-23T17:06:04.649Z,9.60
2023-03-23T17:08:35.995Z,7.50
2023-03-23T17:11:07.457Z,9.50
2023-03-23T17:13:39.067Z,12.90
2023-03-23T17:16:11.696Z,49.70
2023-03-23T17:18:42.703Z,14.50
2023-03-23T17:21:14.072Z,26.40
2023-03-23T17:23:45.296Z,14.10
2023-03-23T17:26:16.504Z,23.70
2023-03-23T17:28:47.665Z,28.30
2023-03-23T17:31:18.791Z,19.70
2023-03-23T17:33:52.174Z,12.00
2023-03-23T17:36:23.189Z,21.20
2023-03-23T17:38:54.821Z,13.70
2023-03-23T17:41:27.219Z,12.00
2023-03-23T17:43:58.538Z,5.20
2023-03-23T17:46:29.842Z,5.50
2023-03-23T17:49:01.339Z,8.80
2023-03-23T17:51:32.775Z,7.70
2023-03-23T17:54:03.885Z,8.10
2023-03-23T17:56:35.128Z,3.80
2023-03-23T17:59:07.245Z,8.60
2023-03-23T18:01:38.437Z,4.30
2023-03-23T18:04:09.773Z,11.40
2023-03-23T18:06:41.005Z,4.10
2023-03-23T18:09:12.851Z,4.70
2023-03-23T18:11:44.088Z,5.00
2023-03-23T18:14:15.665Z,4.20
2023-03-23T18:16:47.358Z,7.40
2023-03-23T18:19:18.773Z,4.20
2023-03-23T18:21:50.155Z,6.80
2023-03-23T18:24:21.798Z,9.90
2023-03-23T18:26:53.572Z,11.50
2023-03-23T18:29:24.970Z,6.70
2023-03-23T18:31:56.225Z,6.60
2023-03-23T18:34:27.593Z,9.00
2023-03-23T18:36:58.724Z,5.60
2023-03-23T18:39:31.753Z,14.70
2023-03-23T18:42:02.871Z,14.20
2023-03-23T18:44:34.111Z,37.90
2023-03-23T18:47:05.508Z,25.90
2023-03-23T18:49:36.773Z,15.90
2023-03-23T18:52:08.599Z,8.70
2023-03-23T18:54:41.764Z,5.90
2023-03-23T18:57:13.144Z,6.10
2023-03-23T18:59:44.459Z,6.60
2023-03-23T19:02:18.361Z,5.40
2023-03-23T19:04:50.515Z,7.90
2023-03-23T19:07:21.973Z,6.40
2023-03-23T19:09:53.200Z,9.40
2023-03-23T19:12:24.230Z,5.20
2023-03-23T19:14:55.393Z,3.30
2023-03-23T19:17:27.086Z,2.80
2023-03-23T19:19:58.291Z,6.10
2023-03-23T19:22:29.972Z,3.00
2023-03-23T19:25:01.486Z,3.00
2023-03-23T19:27:33.054Z,3.40
2023-03-23T19:30:04.674Z,3.70
2023-03-23T19:32:37.132Z,2.20
2023-03-23T19:35:10.168Z,4.00
2023-03-23T19:37:41.343Z,2.60
2023-03-23T19:40:31.744Z,2.70
2023-03-23T19:43:05.929Z,22.60
2023-03-23T19:45:37.224Z,15.90
2023-03-23T19:48:10.108Z,11.00
2023-03-23T19:50:42.910Z,9.80
2023-03-23T19:53:14.520Z,7.50
2023-03-23T19:55:46.205Z,24.90
2023-03-23T19:58:18.045Z,15.70
2023-03-23T20:00:50.637Z,13.10
2023-03-23T20:03:22.032Z,6.00
2023-03-23T20:05:53.088Z,5.30
2023-03-23T20:08:25.164Z,3.20
2023-03-23T20:11:05.311Z,19.90
2023-03-23T20:13:37.407Z,13.80
2023-03-23T20:16:10.579Z,19.10
2023-03-23T20:18:41.825Z,13.10
2023-03-23T20:21:15.330Z,5.20
2023-03-23T20:23:47.720Z,3.40
2023-03-23T20:26:21.194Z,3.30
2023-03-23T20:28:53.135Z,3.80
2023-03-23T20:31:26.811Z,2.60
2023-03-23T20:34:02.002Z,2.20
2023-03-23T20:36:36.064Z,3.30
2023-03-23T20:39:10.716Z,2.90
2023-03-23T20:41:43.338Z,4.30
2023-03-23T20:44:16.175Z,4.10
2023-03-23T20:46:48.933Z,3.80
2023-03-23T20:49:22.110Z,5.20
2023-03-23T20:51:53.837Z,3.80
2023-03-23T20:54:25.551Z,3.90
2023-03-23T20:56:58.565Z,2.70
2023-03-23T20:59:30.105Z,3.10
2023-03-23T21:02:01.466Z,2.90
2023-03-23T21:04:32.683Z,2.60
2023-03-23T21:07:03.938Z,2.10
2023-03-23T21:09:35.864Z,2.20
2023-03-23T21:12:09.299Z,1.70
2023-03-23T21:14:42.432Z,2.20
2023-03-23T21:17:13.560Z,2.00
2023-03-23T21:19:45.617Z,1.90
2023-03-23T21:22:19.201Z,2.10
2023-03-23T21:24:51.441Z,2.00
2023-03-23T21:27:22.544Z,2.00
2023-03-23T21:29:57.278Z,2.40
2023-03-23T21:32:29.181Z,2.20
2023-03-23T21:35:02.831Z,2.00
2023-03-23T21:37:34.018Z,2.70
2023-03-23T21:40:07.078Z,2.20
2023-03-23T21:42:42.215Z,2.60
2023-03-23T21:45:20.996Z,4.00
2023-03-23T21:47:57.005Z,3.70
2023-03-23T21:50:30.077Z,8.50
2023-03-23T21:53:01.542Z,5.50
2023-03-23T21:55:33.656Z,8.00
2023-03-23T21:58:05.734Z,6.40
2023-03-23T22:00:36.866Z,10.90
2023-03-23T22:03:09.255Z,4.50
2023-03-23T22:05:43.960Z,4.00
2023-03-23T22:08:15.279Z,4.90
2023-03-23T22:10:47.091Z,4.20
2023-03-23T22:13:35.273Z,3.20
2023-03-23T22:16:09.223Z,3.00
2023-03-23T22:18:43.109Z,2.80
2023-03-23T22:21:15.892Z,3.10
2023-03-23T22:23:48.098Z,3.10
2023-03-23T22:26:19.398Z,2.50
2023-03-23T22:28:51.179Z,2.10
2023-03-23T22:31:24.602Z,2.60
2023-03-23T22:33:57.335Z,2.40
2023-03-23T22:36:29.807Z,2.80
2023-03-23T22:39:01.222Z,3.80
2023-03-23T22:41:35.679Z,3.50
2023-03-23T22:44:09.055Z,2.60
2023-03-23T22:46:40.287Z,2.70
2023-03-23T22:49:11.820Z,2.00
2023-03-23T22:51:43.082Z,2.40
2023-03-23T22:54:14.433Z,3.30
2023-03-23T22:56:45.623Z,3.70
2023-03-23T22:59:17.091Z,3.60
2023-03-23T23:01:49.044Z,3.70
2023-03-23T23:04:20.269Z,3.50
2023-03-23T23:06:57.609Z,3.40
2023-03-23T23:09:37.790Z,4.00
2023-03-23T23:12:09.684Z,3.30
2023-03-23T23:14:43.391Z,3.30
2023-03-23T23:17:14.523Z,2.90
2023-03-23T23:19:45.575Z,3.80
2023-03-23T23:22:19.313Z,3.30
2023-03-23T23:24:50.950Z,3.30
2023-03-23T23:27:22.064Z,2.90
2023-03-23T23:29:53.264Z,3.00
2023-03-23T23:32:24.706Z,2.60
2023-03-23T23:34:56.144Z,2.40
2023-03-23T23:37:28.178Z,2.40
2023-03-23T23:39:59.746Z,2.90
2023-03-23T23:42:31.114Z,2.60
2023-03-23T23:45:03.365Z,2.50
2023-03-23T23:47:35.165Z,2.90
2023-03-23T23:50:08.656Z,2.30
2023-03-23T23:52:42.678Z,2.40
2023-03-23T23:55:16.860Z,2.10
2023-03-23T23:57:49.343Z,1.80
